sensor_id;sensor_type;location;lat;lon;timestamp;temperature;humidity
12111;DHT22;6119;52.372;8.990;2023-01-24T00:01:21;3.70;99.90
12111;DHT22;6119;52.372;8.990;2023-01-24T00:04:07;3.70;99.90
12111;DHT22;6119;52.372;8.990;2023-01-24T00:06:54;3.70;99.90
12111;DHT22;6119;52.372;8.990;2023-01-24T00:09:41;3.70;99.90
12111;DHT22;6119;52.372;8.990;2023-01-24T00:12:28;3.70;99.90
12111;DHT22;6119;52.372;8.990;2023-01-24T00:15:16;3.70;99.90
12111;DHT22;6119;52.372;8.990;2023-01-24T00:18:03;3.70;99.90
12111;DHT22;6119;52.372;8.990;2023-01-24T00:20:50;3.80;99.90
12111;DHT22;6119;52.372;8.990;2023-01-24T00:23:37;3.70;99.90
12111;DHT22;6119;52.372;8.990;2023-01-24T00:26:24;3.70;99.90
12111;DHT22;6119;52.372;8.990;2023-01-24T00:29:11;3.60;99.90
12111;DHT22;6119;52.372;8.990;2023-01-24T00:31:58;3.70;99.90
12111;DHT22;6119;52.372;8.990;2023-01-24T00:34:45;3.80;99.90
12111;DHT22;6119;52.372;8.990;2023-01-24T00:37:31;3.80;99.90
12111;DHT22;6119;52.372;8.990;2023-01-24T00:40:18;3.70;99.90
12111;DHT22;6119;52.372;8.990;2023-01-24T00:43:05;3.80;99.90
12111;DHT22;6119;52.372;8.990;2023-01-24T00:45:51;3.80;99.90
12111;DHT22;6119;52.372;8.990;2023-01-24T00:48:39;3.80;99.90
12111;DHT22;6119;52.372;8.990;2023-01-24T00:51:26;3.80;99.90
12111;DHT22;6119;52.372;8.990;2023-01-24T00:54:13;3.80;99.90
12111;DHT22;6119;52.372;8.990;2023-01-24T00:56:59;3.80;99.90
12111;DHT22;6119;52.372;8.990;2023-01-24T00:59:46;3.70;99.90
12111;DHT22;6119;52.372;8.990;2023-01-24T01:02:32;3.70;99.90
12111;DHT22;6119;52.372;8.990;2023-01-24T01:05:21;3.80;99.90
12111;DHT22;6119;52.372;8.990;2023-01-24T01:08:09;3.70;99.90
12111;DHT22;6119;52.372;8.990;2023-01-24T01:10:55;3.70;99.90
12111;DHT22;6119;52.372;8.990;2023-01-24T01:13:42;3.70;99.90
12111;DHT22;6119;52.372;8.990;2023-01-24T01:16:29;3.70;99.90
12111;DHT22;6119;52.372;8.990;2023-01-24T01:19:17;3.70;99.90
12111;DHT22;6119;52.372;8.990;2023-01-24T01:22:05;3.70;99.90
12111;DHT22;6119;52.372;8.990;2023-01-24T01:24:52;3.70;99.90
12111;DHT22;6119;52.372;8.990;2023-01-24T01:27:38;3.80;99.90
12111;DHT22;6119;52.372;8.990;2023-01-24T01:30:24;3.80;99.90
12111;DHT22;6119;52.372;8.990;2023-01-24T01:33:11;3.70;99.90
12111;DHT22;6119;52.372;8.990;2023-01-24T01:35:57;3.70;99.90
12111;DHT22;6119;52.372;8.990;2023-01-24T01:38:45;3.70;99.90
12111;DHT22;6119;52.372;8.990;2023-01-24T01:41:31;3.70;99.90
12111;DHT22;6119;52.372;8.990;2023-01-24T01:44:20;3.70;99.90
12111;DHT22;6119;52.372;8.990;2023-01-24T01:47:29;3.80;99.90
12111;DHT22;6119;52.372;8.990;2023-01-24T01:50:23;3.80;99.90
12111;DHT22;6119;52.372;8.990;2023-01-24T01:53:13;3.70;99.90
12111;DHT22;6119;52.372;8.990;2023-01-24T01:56:05;3.70;99.90
12111;DHT22;6119;52.372;8.990;2023-01-24T01:58:55;3.70;99.90
12111;DHT22;6119;52.372;8.990;2023-01-24T02:01:44;3.80;99.90
12111;DHT22;6119;52.372;8.990;2023-01-24T02:04:34;3.70;99.90
12111;DHT22;6119;52.372;8.990;2023-01-24T02:07:24;3.70;99.90
12111;DHT22;6119;52.372;8.990;2023-01-24T02:10:11;3.70;99.90
12111;DHT22;6119;52.372;8.990;2023-01-24T02:12:59;3.80;99.90
12111;DHT22;6119;52.372;8.990;2023-01-24T02:15:46;3.70;99.90
12111;DHT22;6119;52.372;8.990;2023-01-24T02:18:49;3.80;99.90
12111;DHT22;6119;52.372;8.990;2023-01-24T02:21:35;3.70;99.90
12111;DHT22;6119;52.372;8.990;2023-01-24T02:24:26;3.70;99.90
12111;DHT22;6119;52.372;8.990;2023-01-24T02:27:18;3.80;99.90
12111;DHT22;6119;52.372;8.990;2023-01-24T02:30:06;3.80;99.90
12111;DHT22;6119;52.372;8.990;2023-01-24T02:32:52;3.80;99.90
12111;DHT22;6119;52.372;8.990;2023-01-24T02:35:39;3.80;99.90
12111;DHT22;6119;52.372;8.990;2023-01-24T02:38:29;3.80;99.90
12111;DHT22;6119;52.372;8.990;2023-01-24T02:41:18;3.80;99.90
12111;DHT22;6119;52.372;8.990;2023-01-24T02:44:09;3.70;99.90
12111;DHT22;6119;52.372;8.990;2023-01-24T02:46:58;3.80;99.90
12111;DHT22;6119;52.372;8.990;2023-01-24T02:49:44;3.70;99.90
12111;DHT22;6119;52.372;8.990;2023-01-24T02:52:31;3.80;99.90
12111;DHT22;6119;52.372;8.990;2023-01-24T02:55:35;3.80;99.90
12111;DHT22;6119;52.372;8.990;2023-01-24T02:58:43;3.80;99.90
12111;DHT22;6119;52.372;8.990;2023-01-24T03:01:30;3.80;99.90
12111;DHT22;6119;52.372;8.990;2023-01-24T03:04:17;3.80;99.90
12111;DHT22;6119;52.372;8.990;2023-01-24T03:07:03;3.80;99.90
12111;DHT22;6119;52.372;8.990;2023-01-24T03:09:50;3.80;99.90
12111;DHT22;6119;52.372;8.990;2023-01-24T03:12:36;3.80;99.90
12111;DHT22;6119;52.372;8.990;2023-01-24T03:15:40;3.80;99.90
12111;DHT22;6119;52.372;8.990;2023-01-24T03:18:46;3.80;99.90
12111;DHT22;6119;52.372;8.990;2023-01-24T03:21:50;3.80;99.90
12111;DHT22;6119;52.372;8.990;2023-01-24T03:24:55;3.80;99.90
12111;DHT22;6119;52.372;8.990;2023-01-24T03:28:02;3.80;99.90
12111;DHT22;6119;52.372;8.990;2023-01-24T03:31:06;3.80;99.90
12111;DHT22;6119;52.372;8.990;2023-01-24T03:34:12;3.70;99.90
12111;DHT22;6119;52.372;8.990;2023-01-24T03:37:18;3.70;99.90
12111;DHT22;6119;52.372;8.990;2023-01-24T03:40:28;3.70;99.90
12111;DHT22;6119;52.372;8.990;2023-01-24T03:43:14;3.70;99.90
12111;DHT22;6119;52.372;8.990;2023-01-24T03:46:00;3.70;99.90
12111;DHT22;6119;52.372;8.990;2023-01-24T03:48:47;3.70;99.90
12111;DHT22;6119;52.372;8.990;2023-01-24T03:51:35;3.70;99.90
12111;DHT22;6119;52.372;8.990;2023-01-24T03:54:39;3.70;99.90
12111;DHT22;6119;52.372;8.990;2023-01-24T03:57:26;3.70;99.90
12111;DHT22;6119;52.372;8.990;2023-01-24T04:00:14;3.70;99.90
12111;DHT22;6119;52.372;8.990;2023-01-24T04:03:01;3.70;99.90
12111;DHT22;6119;52.372;8.990;2023-01-24T04:05:48;3.70;99.90
12111;DHT22;6119;52.372;8.990;2023-01-24T04:08:36;3.70;99.90
12111;DHT22;6119;52.372;8.990;2023-01-24T04:11:23;3.70;99.90
12111;DHT22;6119;52.372;8.990;2023-01-24T04:14:10;3.70;99.90
12111;DHT22;6119;52.372;8.990;2023-01-24T04:16:56;3.60;99.90
12111;DHT22;6119;52.372;8.990;2023-01-24T04:19:43;3.70;99.90
12111;DHT22;6119;52.372;8.990;2023-01-24T04:22:29;3.60;99.90
12111;DHT22;6119;52.372;8.990;2023-01-24T04:25:17;3.60;99.90
12111;DHT22;6119;52.372;8.990;2023-01-24T04:28:04;3.60;99.90
12111;DHT22;6119;52.372;8.990;2023-01-24T04:30:56;3.60;99.90
12111;DHT22;6119;52.372;8.990;2023-01-24T04:33:42;3.70;99.90
12111;DHT22;6119;52.372;8.990;2023-01-24T04:36:31;3.70;99.90
12111;DHT22;6119;52.372;8.990;2023-01-24T04:39:17;3.60;99.90
12111;DHT22;6119;52.372;8.990;2023-01-24T04:42:05;3.60;99.90
12111;DHT22;6119;52.372;8.990;2023-01-24T04:44:51;3.60;99.90
12111;DHT22;6119;52.372;8.990;2023-01-24T04:47:38;3.60;99.90
12111;DHT22;6119;52.372;8.990;2023-01-24T04:50:25;3.60;99.90
12111;DHT22;6119;52.372;8.990;2023-01-24T04:53:11;3.60;99.90
12111;DHT22;6119;52.372;8.990;2023-01-24T04:56:01;3.60;99.90
12111;DHT22;6119;52.372;8.990;2023-01-24T04:58:49;3.60;99.90
12111;DHT22;6119;52.372;8.990;2023-01-24T05:01:35;3.60;99.90
12111;DHT22;6119;52.372;8.990;2023-01-24T05:04:21;3.70;99.90
12111;DHT22;6119;52.372;8.990;2023-01-24T05:07:08;3.60;99.90
12111;DHT22;6119;52.372;8.990;2023-01-24T05:09:54;3.60;99.90
12111;DHT22;6119;52.372;8.990;2023-01-24T05:12:41;3.60;99.90
12111;DHT22;6119;52.372;8.990;2023-01-24T05:15:29;3.50;99.90
12111;DHT22;6119;52.372;8.990;2023-01-24T05:18:15;3.60;99.90
12111;DHT22;6119;52.372;8.990;2023-01-24T05:21:06;3.50;99.90
12111;DHT22;6119;52.372;8.990;2023-01-24T05:23:53;3.50;99.90
12111;DHT22;6119;52.372;8.990;2023-01-24T05:26:40;3.50;99.90
12111;DHT22;6119;52.372;8.990;2023-01-24T05:29:26;3.50;99.90
12111;DHT22;6119;52.372;8.990;2023-01-24T05:32:14;3.50;99.90
12111;DHT22;6119;52.372;8.990;2023-01-24T05:35:01;3.50;99.90
12111;DHT22;6119;52.372;8.990;2023-01-24T05:37:48;3.50;99.90
12111;DHT22;6119;52.372;8.990;2023-01-24T05:40:36;3.50;99.90
12111;DHT22;6119;52.372;8.990;2023-01-24T05:43:23;3.50;99.90
12111;DHT22;6119;52.372;8.990;2023-01-24T05:46:11;3.50;99.90
12111;DHT22;6119;52.372;8.990;2023-01-24T05:48:59;3.50;99.90
12111;DHT22;6119;52.372;8.990;2023-01-24T05:51:45;3.60;99.90
12111;DHT22;6119;52.372;8.990;2023-01-24T05:54:32;3.60;99.90
12111;DHT22;6119;52.372;8.990;2023-01-24T05:57:18;3.60;99.90
12111;DHT22;6119;52.372;8.990;2023-01-24T06:00:06;3.50;99.90
12111;DHT22;6119;52.372;8.990;2023-01-24T06:02:53;3.50;99.90
12111;DHT22;6119;52.372;8.990;2023-01-24T06:05:46;3.50;99.90
12111;DHT22;6119;52.372;8.990;2023-01-24T06:08:33;3.50;99.90
12111;DHT22;6119;52.372;8.990;2023-01-24T06:11:21;3.50;99.90
12111;DHT22;6119;52.372;8.990;2023-01-24T06:14:11;3.50;99.90
12111;DHT22;6119;52.372;8.990;2023-01-24T06:16:58;3.50;99.90
12111;DHT22;6119;52.372;8.990;2023-01-24T06:19:45;3.50;99.90
12111;DHT22;6119;52.372;8.990;2023-01-24T06:22:40;3.50;99.90
12111;DHT22;6119;52.372;8.990;2023-01-24T06:25:29;3.50;99.90
12111;DHT22;6119;52.372;8.990;2023-01-24T06:28:16;3.50;99.90
12111;DHT22;6119;52.372;8.990;2023-01-24T06:31:08;3.50;99.90
12111;DHT22;6119;52.372;8.990;2023-01-24T06:34:06;3.50;99.90
12111;DHT22;6119;52.372;8.990;2023-01-24T06:37:03;3.50;99.90
12111;DHT22;6119;52.372;8.990;2023-01-24T06:39:53;3.50;99.90
12111;DHT22;6119;52.372;8.990;2023-01-24T06:42:40;3.50;99.90
12111;DHT22;6119;52.372;8.990;2023-01-24T06:45:27;3.50;99.90
12111;DHT22;6119;52.372;8.990;2023-01-24T06:48:13;3.50;99.90
12111;DHT22;6119;52.372;8.990;2023-01-24T06:51:00;3.50;99.90
12111;DHT22;6119;52.372;8.990;2023-01-24T06:53:47;3.50;99.90
12111;DHT22;6119;52.372;8.990;2023-01-24T06:56:34;3.50;99.90
12111;DHT22;6119;52.372;8.990;2023-01-24T06:59:21;3.50;99.90
12111;DHT22;6119;52.372;8.990;2023-01-24T07:02:09;3.40;99.90
12111;DHT22;6119;52.372;8.990;2023-01-24T07:04:56;3.30;99.90
12111;DHT22;6119;52.372;8.990;2023-01-24T07:07:42;3.40;99.90
12111;DHT22;6119;52.372;8.990;2023-01-24T07:10:28;3.40;99.90
12111;DHT22;6119;52.372;8.990;2023-01-24T07:13:16;3.40;99.90
12111;DHT22;6119;52.372;8.990;2023-01-24T07:16:03;3.40;99.90
12111;DHT22;6119;52.372;8.990;2023-01-24T07:18:51;3.40;99.90
12111;DHT22;6119;52.372;8.990;2023-01-24T07:21:39;3.40;99.90
12111;DHT22;6119;52.372;8.990;2023-01-24T07:24:27;3.40;99.90
12111;DHT22;6119;52.372;8.990;2023-01-24T07:27:15;3.30;99.90
12111;DHT22;6119;52.372;8.990;2023-01-24T07:30:04;3.30;99.90
12111;DHT22;6119;52.372;8.990;2023-01-24T07:32:50;3.30;99.90
12111;DHT22;6119;52.372;8.990;2023-01-24T07:35:37;3.30;99.90
12111;DHT22;6119;52.372;8.990;2023-01-24T07:38:23;3.30;99.90
12111;DHT22;6119;52.372;8.990;2023-01-24T07:41:10;3.30;99.90
12111;DHT22;6119;52.372;8.990;2023-01-24T07:43:57;3.30;99.90
12111;DHT22;6119;52.372;8.990;2023-01-24T07:46:45;3.40;99.90
12111;DHT22;6119;52.372;8.990;2023-01-24T07:49:31;3.30;99.90
12111;DHT22;6119;52.372;8.990;2023-01-24T07:52:18;3.40;99.90
12111;DHT22;6119;52.372;8.990;2023-01-24T07:55:05;3.30;99.90
12111;DHT22;6119;52.372;8.990;2023-01-24T07:57:56;3.40;99.90
12111;DHT22;6119;52.372;8.990;2023-01-24T08:00:43;3.30;99.90
12111;DHT22;6119;52.372;8.990;2023-01-24T08:03:31;3.40;99.90
12111;DHT22;6119;52.372;8.990;2023-01-24T08:06:18;3.40;99.90
12111;DHT22;6119;52.372;8.990;2023-01-24T08:09:04;3.40;99.90
12111;DHT22;6119;52.372;8.990;2023-01-24T08:11:51;3.40;99.90
12111;DHT22;6119;52.372;8.990;2023-01-24T08:14:37;3.30;99.90
12111;DHT22;6119;52.372;8.990;2023-01-24T08:17:24;3.40;99.90
12111;DHT22;6119;52.372;8.990;2023-01-24T08:20:13;3.30;99.90
12111;DHT22;6119;52.372;8.990;2023-01-24T08:22:59;3.30;99.90
12111;DHT22;6119;52.372;8.990;2023-01-24T08:25:46;3.50;99.90
12111;DHT22;6119;52.372;8.990;2023-01-24T08:28:33;3.40;99.90
12111;DHT22;6119;52.372;8.990;2023-01-24T08:31:20;3.40;99.90
12111;DHT22;6119;52.372;8.990;2023-01-24T08:34:08;3.40;99.90
12111;DHT22;6119;52.372;8.990;2023-01-24T08:36:56;3.40;99.90
12111;DHT22;6119;52.372;8.990;2023-01-24T08:39:44;3.50;99.90
12111;DHT22;6119;52.372;8.990;2023-01-24T08:42:30;3.40;99.90
12111;DHT22;6119;52.372;8.990;2023-01-24T08:45:17;3.40;99.90
12111;DHT22;6119;52.372;8.990;2023-01-24T08:48:04;3.50;99.90
12111;DHT22;6119;52.372;8.990;2023-01-24T08:50:50;3.50;99.90
12111;DHT22;6119;52.372;8.990;2023-01-24T08:53:38;3.40;99.90
12111;DHT22;6119;52.372;8.990;2023-01-24T08:56:25;3.50;99.90
12111;DHT22;6119;52.372;8.990;2023-01-24T08:59:11;3.50;99.90
12111;DHT22;6119;52.372;8.990;2023-01-24T09:01:57;3.40;99.90
12111;DHT22;6119;52.372;8.990;2023-01-24T09:04:44;3.40;99.90
12111;DHT22;6119;52.372;8.990;2023-01-24T09:07:31;3.40;99.90
12111;DHT22;6119;52.372;8.990;2023-01-24T09:10:20;3.40;99.90
12111;DHT22;6119;52.372;8.990;2023-01-24T09:13:07;3.50;99.90
12111;DHT22;6119;52.372;8.990;2023-01-24T09:15:54;3.50;99.90
12111;DHT22;6119;52.372;8.990;2023-01-24T09:18:40;3.50;99.90
12111;DHT22;6119;52.372;8.990;2023-01-24T09:21:27;3.50;99.90
12111;DHT22;6119;52.372;8.990;2023-01-24T09:24:13;3.50;99.90
12111;DHT22;6119;52.372;8.990;2023-01-24T09:27:02;3.50;99.90
12111;DHT22;6119;52.372;8.990;2023-01-24T09:29:48;3.50;99.90
12111;DHT22;6119;52.372;8.990;2023-01-24T09:32:35;3.50;99.90
12111;DHT22;6119;52.372;8.990;2023-01-24T09:35:22;3.50;99.90
12111;DHT22;6119;52.372;8.990;2023-01-24T09:38:08;3.50;99.90
12111;DHT22;6119;52.372;8.990;2023-01-24T09:41:00;3.50;99.90
12111;DHT22;6119;52.372;8.990;2023-01-24T09:43:52;3.50;99.90
12111;DHT22;6119;52.372;8.990;2023-01-24T09:46:41;3.50;99.90
12111;DHT22;6119;52.372;8.990;2023-01-24T09:49:36;3.40;99.90
12111;DHT22;6119;52.372;8.990;2023-01-24T09:52:33;3.50;99.90
12111;DHT22;6119;52.372;8.990;2023-01-24T09:55:23;3.40;99.90
12111;DHT22;6119;52.372;8.990;2023-01-24T09:58:24;3.50;99.90
12111;DHT22;6119;52.372;8.990;2023-01-24T10:01:18;3.50;99.90
12111;DHT22;6119;52.372;8.990;2023-01-24T10:04:08;3.60;99.90
12111;DHT22;6119;52.372;8.990;2023-01-24T10:07:26;3.60;99.90
12111;DHT22;6119;52.372;8.990;2023-01-24T10:10:29;3.50;99.90
12111;DHT22;6119;52.372;8.990;2023-01-24T10:13:47;3.50;99.90
12111;DHT22;6119;52.372;8.990;2023-01-24T10:17:04;3.50;99.90
12111;DHT22;6119;52.372;8.990;2023-01-24T10:20:15;3.50;99.90
12111;DHT22;6119;52.372;8.990;2023-01-24T10:23:08;3.50;99.90
12111;DHT22;6119;52.372;8.990;2023-01-24T10:25:58;3.50;99.90
12111;DHT22;6119;52.372;8.990;2023-01-24T10:28:49;3.50;99.90
12111;DHT22;6119;52.372;8.990;2023-01-24T10:31:40;3.50;99.90
12111;DHT22;6119;52.372;8.990;2023-01-24T10:34:32;3.60;99.90
12111;DHT22;6119;52.372;8.990;2023-01-24T10:37:22;3.50;99.90
12111;DHT22;6119;52.372;8.990;2023-01-24T10:40:11;3.60;99.90
12111;DHT22;6119;52.372;8.990;2023-01-24T10:43:04;3.60;99.90
12111;DHT22;6119;52.372;8.990;2023-01-24T10:46:02;3.50;99.90
12111;DHT22;6119;52.372;8.990;2023-01-24T10:48:52;3.50;99.90
12111;DHT22;6119;52.372;8.990;2023-01-24T10:51:41;3.60;99.90
12111;DHT22;6119;52.372;8.990;2023-01-24T10:54:28;3.60;99.90
12111;DHT22;6119;52.372;8.990;2023-01-24T10:57:32;3.60;99.90
12111;DHT22;6119;52.372;8.990;2023-01-24T11:00:27;3.50;99.90
12111;DHT22;6119;52.372;8.990;2023-01-24T11:03:18;3.60;99.90
12111;DHT22;6119;52.372;8.990;2023-01-24T11:06:24;3.60;99.90
12111;DHT22;6119;52.372;8.990;2023-01-24T11:09:14;3.60;99.90
12111;DHT22;6119;52.372;8.990;2023-01-24T11:12:02;3.60;99.90
12111;DHT22;6119;52.372;8.990;2023-01-24T11:14:48;3.60;99.90
12111;DHT22;6119;52.372;8.990;2023-01-24T11:17:36;3.70;99.90
12111;DHT22;6119;52.372;8.990;2023-01-24T11:20:29;3.80;99.90
12111;DHT22;6119;52.372;8.990;2023-01-24T11:23:19;3.80;99.90
12111;DHT22;6119;52.372;8.990;2023-01-24T11:26:25;3.80;99.90
12111;DHT22;6119;52.372;8.990;2023-01-24T11:29:15;3.80;99.90
12111;DHT22;6119;52.372;8.990;2023-01-24T11:32:20;3.80;99.90
12111;DHT22;6119;52.372;8.990;2023-01-24T11:35:16;3.90;99.90
12111;DHT22;6119;52.372;8.990;2023-01-24T11:38:21;3.90;99.90
12111;DHT22;6119;52.372;8.990;2023-01-24T11:41:12;3.90;99.90
12111;DHT22;6119;52.372;8.990;2023-01-24T11:44:23;4.00;99.90
12111;DHT22;6119;52.372;8.990;2023-01-24T11:47:15;4.00;99.90
12111;DHT22;6119;52.372;8.990;2023-01-24T11:50:16;3.90;99.90
12111;DHT22;6119;52.372;8.990;2023-01-24T11:53:19;3.90;99.90
12111;DHT22;6119;52.372;8.990;2023-01-24T11:56:17;4.00;99.90
12111;DHT22;6119;52.372;8.990;2023-01-24T11:59:18;4.00;99.90
12111;DHT22;6119;52.372;8.990;2023-01-24T12:02:28;4.00;99.90
12111;DHT22;6119;52.372;8.990;2023-01-24T12:05:33;4.00;99.90
12111;DHT22;6119;52.372;8.990;2023-01-24T12:08:37;4.10;99.90
12111;DHT22;6119;52.372;8.990;2023-01-24T12:11:29;4.00;99.90
12111;DHT22;6119;52.372;8.990;2023-01-24T12:14:47;4.00;99.90
12111;DHT22;6119;52.372;8.990;2023-01-24T12:17:55;4.10;99.90
12111;DHT22;6119;52.372;8.990;2023-01-24T12:20:57;4.00;99.90
12111;DHT22;6119;52.372;8.990;2023-01-24T12:23:49;4.10;99.90
12111;DHT22;6119;52.372;8.990;2023-01-24T12:26:40;4.00;99.90
12111;DHT22;6119;52.372;8.990;2023-01-24T12:29:31;4.00;99.90
12111;DHT22;6119;52.372;8.990;2023-01-24T12:32:22;4.10;99.90
12111;DHT22;6119;52.372;8.990;2023-01-24T12:35:16;4.10;99.90
12111;DHT22;6119;52.372;8.990;2023-01-24T12:38:17;4.10;99.90
12111;DHT22;6119;52.372;8.990;2023-01-24T12:41:12;4.10;99.90
12111;DHT22;6119;52.372;8.990;2023-01-24T12:44:09;4.20;99.90
12111;DHT22;6119;52.372;8.990;2023-01-24T12:47:16;4.10;99.90
12111;DHT22;6119;52.372;8.990;2023-01-24T12:50:16;4.10;99.90
12111;DHT22;6119;52.372;8.990;2023-01-24T12:53:11;4.10;99.90
12111;DHT22;6119;52.372;8.990;2023-01-24T12:56:04;4.10;99.90
12111;DHT22;6119;52.372;8.990;2023-01-24T12:58:52;4.10;99.90
12111;DHT22;6119;52.372;8.990;2023-01-24T13:02:03;4.10;99.90
12111;DHT22;6119;52.372;8.990;2023-01-24T13:05:02;4.10;99.90
12111;DHT22;6119;52.372;8.990;2023-01-24T13:08:03;4.10;99.90
12111;DHT22;6119;52.372;8.990;2023-01-24T13:11:00;4.10;99.90
12111;DHT22;6119;52.372;8.990;2023-01-24T13:14:06;4.00;99.90
12111;DHT22;6119;52.372;8.990;2023-01-24T13:17:10;4.00;99.90
12111;DHT22;6119;52.372;8.990;2023-01-24T13:20:45;4.10;99.90
12111;DHT22;6119;52.372;8.990;2023-01-24T13:23:51;4.10;99.90
12111;DHT22;6119;52.372;8.990;2023-01-24T13:26:55;4.10;99.90
12111;DHT22;6119;52.372;8.990;2023-01-24T13:30:05;4.10;99.90
12111;DHT22;6119;52.372;8.990;2023-01-24T13:32:59;4.10;99.90
12111;DHT22;6119;52.372;8.990;2023-01-24T13:35:48;4.10;99.90
12111;DHT22;6119;52.372;8.990;2023-01-24T13:38:40;4.10;99.90
12111;DHT22;6119;52.372;8.990;2023-01-24T13:41:35;4.10;99.90
12111;DHT22;6119;52.372;8.990;2023-01-24T13:44:29;4.10;99.90
12111;DHT22;6119;52.372;8.990;2023-01-24T13:47:24;4.10;99.90
12111;DHT22;6119;52.372;8.990;2023-01-24T13:50:20;4.00;99.90
12111;DHT22;6119;52.372;8.990;2023-01-24T13:53:07;4.10;99.90
12111;DHT22;6119;52.372;8.990;2023-01-24T13:56:01;4.00;99.90
12111;DHT22;6119;52.372;8.990;2023-01-24T13:58:51;4.00;99.90
12111;DHT22;6119;52.372;8.990;2023-01-24T14:01:44;4.00;99.90
12111;DHT22;6119;52.372;8.990;2023-01-24T14:04:41;4.00;99.90
12111;DHT22;6119;52.372;8.990;2023-01-24T14:07:36;4.00;99.90
12111;DHT22;6119;52.372;8.990;2023-01-24T14:10:32;4.00;99.90
12111;DHT22;6119;52.372;8.990;2023-01-24T14:13:54;3.80;99.90
12111;DHT22;6119;52.372;8.990;2023-01-24T14:20:03;3.80;99.90
12111;DHT22;6119;52.372;8.990;2023-01-24T14:22:55;3.90;99.90
12111;DHT22;6119;52.372;8.990;2023-01-24T14:25:48;3.80;99.90
12111;DHT22;6119;52.372;8.990;2023-01-24T14:28:38;3.80;99.90
12111;DHT22;6119;52.372;8.990;2023-01-24T14:31:29;3.70;99.90
12111;DHT22;6119;52.372;8.990;2023-01-24T14:34:21;3.80;99.90
12111;DHT22;6119;52.372;8.990;2023-01-24T14:37:11;3.80;99.90
12111;DHT22;6119;52.372;8.990;2023-01-24T14:40:17;3.80;99.90
12111;DHT22;6119;52.372;8.990;2023-01-24T14:43:04;3.80;99.90
12111;DHT22;6119;52.372;8.990;2023-01-24T14:45:51;3.70;99.90
12111;DHT22;6119;52.372;8.990;2023-01-24T14:48:38;3.70;99.90
12111;DHT22;6119;52.372;8.990;2023-01-24T14:51:25;3.70;99.90
12111;DHT22;6119;52.372;8.990;2023-01-24T14:54:19;3.70;99.90
12111;DHT22;6119;52.372;8.990;2023-01-24T14:57:20;3.70;99.90
12111;DHT22;6119;52.372;8.990;2023-01-24T15:00:15;3.60;99.90
12111;DHT22;6119;52.372;8.990;2023-01-24T15:03:02;3.60;99.90
12111;DHT22;6119;52.372;8.990;2023-01-24T15:05:53;3.60;99.90
12111;DHT22;6119;52.372;8.990;2023-01-24T15:08:40;3.60;99.90
12111;DHT22;6119;52.372;8.990;2023-01-24T15:11:30;3.50;99.90
12111;DHT22;6119;52.372;8.990;2023-01-24T15:14:21;3.60;99.90
12111;DHT22;6119;52.372;8.990;2023-01-24T15:17:14;3.50;99.90
12111;DHT22;6119;52.372;8.990;2023-01-24T15:20:08;3.50;99.90
12111;DHT22;6119;52.372;8.990;2023-01-24T15:22:58;3.40;99.90
12111;DHT22;6119;52.372;8.990;2023-01-24T15:25:47;3.50;99.90
12111;DHT22;6119;52.372;8.990;2023-01-24T15:28:33;3.40;99.90
12111;DHT22;6119;52.372;8.990;2023-01-24T15:31:28;3.40;99.90
12111;DHT22;6119;52.372;8.990;2023-01-24T15:34:18;3.40;99.90
12111;DHT22;6119;52.372;8.990;2023-01-24T15:37:12;3.40;99.90
12111;DHT22;6119;52.372;8.990;2023-01-24T15:39:59;3.30;99.90
12111;DHT22;6119;52.372;8.990;2023-01-24T15:42:47;3.30;99.90
12111;DHT22;6119;52.372;8.990;2023-01-24T15:45:53;3.30;99.90
12111;DHT22;6119;52.372;8.990;2023-01-24T15:49:03;3.20;99.90
12111;DHT22;6119;52.372;8.990;2023-01-24T15:55:13;3.30;99.90
12111;DHT22;6119;52.372;8.990;2023-01-24T15:57:59;3.20;99.90
12111;DHT22;6119;52.372;8.990;2023-01-24T16:00:51;3.20;99.90
12111;DHT22;6119;52.372;8.990;2023-01-24T16:03:38;3.30;99.90
12111;DHT22;6119;52.372;8.990;2023-01-24T16:06:25;3.20;99.90
12111;DHT22;6119;52.372;8.990;2023-01-24T16:09:12;3.20;99.90
12111;DHT22;6119;52.372;8.990;2023-01-24T16:11:59;3.20;99.90
12111;DHT22;6119;52.372;8.990;2023-01-24T16:14:49;3.10;99.90
12111;DHT22;6119;52.372;8.990;2023-01-24T16:17:52;3.20;99.90
12111;DHT22;6119;52.372;8.990;2023-01-24T16:20:39;3.20;99.90
12111;DHT22;6119;52.372;8.990;2023-01-24T16:23:29;3.10;99.90
12111;DHT22;6119;52.372;8.990;2023-01-24T16:26:19;3.10;99.90
12111;DHT22;6119;52.372;8.990;2023-01-24T16:29:12;3.20;99.90
12111;DHT22;6119;52.372;8.990;2023-01-24T16:32:01;3.20;99.90
12111;DHT22;6119;52.372;8.990;2023-01-24T16:34:50;3.20;99.90
12111;DHT22;6119;52.372;8.990;2023-01-24T16:37:37;3.20;99.90
12111;DHT22;6119;52.372;8.990;2023-01-24T16:40:25;3.20;99.90
12111;DHT22;6119;52.372;8.990;2023-01-24T16:43:16;3.20;99.90
12111;DHT22;6119;52.372;8.990;2023-01-24T16:46:15;3.20;99.90
12111;DHT22;6119;52.372;8.990;2023-01-24T16:49:02;3.20;99.90
12111;DHT22;6119;52.372;8.990;2023-01-24T16:51:49;3.20;99.90
12111;DHT22;6119;52.372;8.990;2023-01-24T16:54:35;3.20;99.90
12111;DHT22;6119;52.372;8.990;2023-01-24T16:57:23;3.30;99.90
12111;DHT22;6119;52.372;8.990;2023-01-24T17:00:11;3.30;99.90
12111;DHT22;6119;52.372;8.990;2023-01-24T17:02:58;3.20;99.90
12111;DHT22;6119;52.372;8.990;2023-01-24T17:05:45;3.20;99.90
12111;DHT22;6119;52.372;8.990;2023-01-24T17:08:32;3.20;99.90
12111;DHT22;6119;52.372;8.990;2023-01-24T17:11:19;3.20;99.90
12111;DHT22;6119;52.372;8.990;2023-01-24T17:14:09;3.10;99.90
12111;DHT22;6119;52.372;8.990;2023-01-24T17:16:55;3.10;99.90
12111;DHT22;6119;52.372;8.990;2023-01-24T17:19:42;3.10;99.90
12111;DHT22;6119;52.372;8.990;2023-01-24T17:22:28;3.10;99.90
12111;DHT22;6119;52.372;8.990;2023-01-24T17:25:15;3.10;99.90
12111;DHT22;6119;52.372;8.990;2023-01-24T17:28:02;3.20;99.90
12111;DHT22;6119;52.372;8.990;2023-01-24T17:30:50;3.20;99.90
12111;DHT22;6119;52.372;8.990;2023-01-24T17:33:37;3.20;99.90
12111;DHT22;6119;52.372;8.990;2023-01-24T17:36:24;3.20;99.90
12111;DHT22;6119;52.372;8.990;2023-01-24T17:39:11;3.10;99.90
12111;DHT22;6119;52.372;8.990;2023-01-24T17:41:58;3.10;99.90
12111;DHT22;6119;52.372;8.990;2023-01-24T17:44:45;3.20;99.90
12111;DHT22;6119;52.372;8.990;2023-01-24T17:47:33;3.10;99.90
12111;DHT22;6119;52.372;8.990;2023-01-24T17:50:20;3.20;99.90
12111;DHT22;6119;52.372;8.990;2023-01-24T17:53:08;3.10;99.90
12111;DHT22;6119;52.372;8.990;2023-01-24T17:55:54;3.20;99.90
12111;DHT22;6119;52.372;8.990;2023-01-24T17:58:41;3.10;99.90
12111;DHT22;6119;52.372;8.990;2023-01-24T18:01:28;3.20;99.90
12111;DHT22;6119;52.372;8.990;2023-01-24T18:04:16;3.10;99.90
12111;DHT22;6119;52.372;8.990;2023-01-24T18:07:03;3.20;99.90
12111;DHT22;6119;52.372;8.990;2023-01-24T18:09:49;3.20;99.90
12111;DHT22;6119;52.372;8.990;2023-01-24T18:12:35;3.10;99.90
12111;DHT22;6119;52.372;8.990;2023-01-24T18:15:22;3.10;99.90
12111;DHT22;6119;52.372;8.990;2023-01-24T18:18:08;3.20;99.90
12111;DHT22;6119;52.372;8.990;2023-01-24T18:20:56;3.10;99.90
12111;DHT22;6119;52.372;8.990;2023-01-24T18:23:43;3.10;99.90
12111;DHT22;6119;52.372;8.990;2023-01-24T18:26:30;3.10;99.90
12111;DHT22;6119;52.372;8.990;2023-01-24T18:29:16;3.10;99.90
12111;DHT22;6119;52.372;8.990;2023-01-24T18:32:03;3.10;99.90
12111;DHT22;6119;52.372;8.990;2023-01-24T18:34:50;3.10;99.90
12111;DHT22;6119;52.372;8.990;2023-01-24T18:37:38;3.10;99.90
12111;DHT22;6119;52.372;8.990;2023-01-24T18:40:24;3.10;99.90
12111;DHT22;6119;52.372;8.990;2023-01-24T18:43:11;3.10;99.90